createdAt,value
2023-03-18T00:02:20.307Z,3.66
2023-03-18T00:05:09.696Z,3.64
2023-03-18T00:07:57.232Z,3.62
2023-03-18T00:10:35.800Z,3.60
2023-03-18T00:13:07.317Z,3.59
2023-03-18T00:15:34.830Z,3.57
2023-03-18T00:18:11.236Z,3.55
2023-03-18T00:21:00.175Z,3.54
2023-03-18T00:23:39.019Z,3.52
2023-03-18T00:26:27.317Z,3.50
2023-03-18T00:28:59.085Z,3.48
2023-03-18T00:31:40.390Z,3.46
2023-03-18T00:34:08.473Z,3.44
2023-03-18T00:36:50.936Z,3.42
2023-03-18T00:39:21.816Z,3.41
2023-03-18T00:41:52.962Z,3.39
2023-03-18T00:44:20.274Z,3.36
2023-03-18T00:46:48.300Z,3.35
2023-03-18T00:49:38.085Z,3.33
2023-03-18T00:52:19.866Z,3.31
2023-03-18T00:54:47.790Z,3.30
2023-03-18T00:57:26.478Z,3.27
2023-03-18T00:59:53.990Z,3.26
2023-03-18T01:02:23.815Z,3.25
2023-03-18T01:04:55.265Z,3.24
2023-03-18T01:07:28.169Z,3.23
2023-03-18T01:09:57.570Z,3.22
2023-03-18T01:12:33.698Z,3.21
2023-03-18T01:15:01.425Z,3.20
2023-03-18T01:17:29.296Z,3.20
2023-03-18T01:19:58.842Z,3.19
2023-03-18T01:22:28.556Z,3.18
2023-03-18T01:24:57.765Z,3.17
2023-03-18T01:27:45.694Z,3.16
2023-03-18T01:30:24.030Z,3.16
2023-03-18T01:32:52.110Z,3.16
2023-03-18T01:35:41.370Z,3.15
2023-03-18T01:38:09.978Z,3.14
2023-03-18T01:40:40.605Z,3.14
2023-03-18T01:43:21.206Z,3.13
2023-03-18T01:46:36.209Z,3.12
2023-03-18T01:49:21.982Z,3.11
2023-03-18T01:51:53.722Z,3.11
2023-03-18T01:54:26.796Z,3.09
2023-03-18T01:56:55.870Z,3.09
2023-03-18T01:59:45.724Z,3.09
2023-03-18T02:02:25.375Z,3.08
2023-03-18T02:04:59.552Z,3.09
2023-03-18T02:07:29.857Z,3.08
2023-03-18T02:10:12.195Z,3.08
2023-03-18T02:12:56.772Z,3.06
2023-03-18T02:15:50.671Z,3.03
2023-03-18T02:18:32.112Z,3.01
2023-03-18T02:21:17.334Z,2.99
2023-03-18T02:23:55.239Z,2.98
2023-03-18T02:26:28.184Z,2.97
2023-03-18T02:29:02.380Z,2.95
2023-03-18T02:31:31.288Z,2.95
2023-03-18T02:34:02.211Z,2.93
2023-03-18T02:36:31.289Z,2.91
2023-03-18T02:39:09.132Z,2.90
2023-03-18T02:41:39.627Z,2.90
2023-03-18T02:44:11.827Z,2.88
2023-03-18T02:47:05.299Z,2.86
2023-03-18T02:49:42.886Z,2.85
2023-03-18T02:52:16.076Z,2.83
2023-03-18T02:54:59.435Z,2.82
2023-03-18T02:57:29.510Z,2.80
2023-03-18T03:00:00.568Z,2.78
2023-03-18T03:02:30.476Z,2.78
2023-03-18T03:04:58.133Z,2.77
2023-03-18T03:07:46.848Z,2.76
2023-03-18T03:10:19.538Z,2.75
2023-03-18T03:12:47.692Z,2.73
2023-03-18T03:15:22.369Z,2.73
2023-03-18T03:17:54.666Z,2.71
2023-03-18T03:20:25.290Z,2.70
2023-03-18T03:22:55.290Z,2.69
2023-03-18T03:25:27.296Z,2.68
2023-03-18T03:27:57.747Z,2.68
2023-03-18T03:30:28.301Z,2.68
2023-03-18T03:33:16.079Z,2.68
2023-03-18T03:35:48.498Z,2.67
2023-03-18T03:38:36.000Z,2.67
2023-03-18T03:41:06.629Z,2.67
2023-03-18T03:43:43.658Z,2.67
2023-03-18T03:46:15.595Z,2.66
2023-03-18T03:48:43.688Z,2.66
2023-03-18T03:51:13.183Z,2.66
2023-03-18T03:54:01.227Z,2.66
2023-03-18T03:56:43.561Z,2.64
2023-03-18T03:59:11.848Z,2.64
2023-03-18T04:02:05.061Z,2.62
2023-03-18T04:04:45.575Z,2.61
2023-03-18T04:07:21.744Z,2.60
2023-03-18T04:09:49.716Z,2.60
2023-03-18T04:12:22.319Z,2.57
2023-03-18T04:14:55.225Z,2.56
2023-03-18T04:17:23.070Z,2.54
2023-03-18T04:19:50.865Z,2.52
2023-03-18T04:22:18.873Z,2.50
2023-03-18T04:24:46.091Z,2.49
2023-03-18T04:27:13.845Z,2.47
2023-03-18T04:29:41.959Z,2.45
2023-03-18T04:32:09.576Z,2.45
2023-03-18T04:34:56.057Z,2.44
2023-03-18T04:37:25.578Z,2.43
2023-03-18T04:39:54.952Z,2.43
2023-03-18T04:42:25.014Z,2.42
2023-03-18T04:45:01.970Z,2.40
2023-03-18T04:47:29.964Z,2.39
2023-03-18T04:50:11.026Z,2.38
2023-03-18T04:52:58.663Z,2.39
2023-03-18T04:55:28.311Z,2.40
2023-03-18T04:57:58.943Z,2.42
2023-03-18T05:00:36.846Z,2.45
2023-03-18T05:03:15.670Z,2.49
2023-03-18T05:05:54.034Z,2.54
2023-03-18T05:08:26.329Z,2.60
2023-03-18T05:10:54.324Z,2.67
2023-03-18T05:13:22.173Z,2.75
2023-03-18T05:15:52.775Z,2.95
2023-03-18T05:18:20.375Z,3.32
2023-03-18T05:20:49.027Z,3.68
2023-03-18T05:23:16.858Z,3.89
2023-03-18T05:25:53.532Z,4.05
2023-03-18T05:28:22.665Z,4.30
2023-03-18T05:31:08.721Z,4.70
2023-03-18T05:33:38.784Z,5.40
2023-03-18T05:36:09.442Z,6.16
2023-03-18T05:38:41.578Z,6.58
2023-03-18T05:41:09.277Z,7.03
2023-03-18T05:43:39.073Z,7.44
2023-03-18T05:46:06.720Z,8.02
2023-03-18T05:49:00.035Z,8.78
2023-03-18T05:51:32.096Z,8.96
2023-03-18T05:54:02.359Z,9.26
2023-03-18T05:56:52.500Z,9.96
2023-03-18T05:59:20.400Z,10.83
2023-03-18T06:01:53.981Z,11.93
2023-03-18T06:04:21.496Z,12.68
2023-03-18T06:06:49.845Z,13.35
2023-03-18T06:09:17.784Z,13.91
2023-03-18T06:11:45.740Z,14.41
2023-03-18T06:14:13.082Z,15.11
2023-03-18T06:16:40.696Z,15.76
2023-03-18T06:19:08.269Z,15.89
2023-03-18T06:21:36.325Z,15.88
2023-03-18T06:24:04.631Z,15.92
2023-03-18T06:26:33.273Z,15.88
2023-03-18T06:29:02.437Z,15.72
2023-03-18T06:31:29.738Z,15.56
2023-03-18T06:33:56.920Z,15.40
2023-03-18T06:36:25.042Z,15.18
2023-03-18T06:38:52.671Z,15.03
2023-03-18T06:41:21.365Z,15.34
2023-03-18T06:44:09.194Z,15.97
2023-03-18T06:46:37.400Z,16.41
2023-03-18T06:49:04.965Z,16.28
2023-03-18T06:51:34.519Z,16.06
2023-03-18T06:54:02.290Z,15.93
2023-03-18T06:56:33.831Z,15.85
2023-03-18T06:59:11.216Z,15.60
2023-03-18T07:01:39.486Z,15.25
2023-03-18T07:04:08.409Z,15.12
2023-03-18T07:06:38.182Z,15.06
2023-03-18T07:09:05.316Z,15.37
2023-03-18T07:11:32.797Z,15.74
2023-03-18T07:14:04.383Z,16.03
2023-03-18T07:16:33.661Z,16.23
2023-03-18T07:19:02.122Z,16.42
2023-03-18T07:21:30.922Z,16.34
2023-03-18T07:23:58.396Z,16.54
2023-03-18T07:26:25.837Z,16.72
2023-03-18T07:28:53.213Z,16.67
2023-03-18T07:31:20.399Z,16.37
2023-03-18T07:33:47.720Z,16.13
2023-03-18T07:36:16.688Z,15.99
2023-03-18T07:38:44.153Z,15.86
2023-03-18T07:41:12.874Z,16.03
2023-03-18T07:43:40.343Z,16.04
2023-03-18T07:46:07.987Z,16.04
2023-03-18T07:48:35.407Z,16.03
2023-03-18T07:51:03.039Z,15.97
2023-03-18T07:53:30.346Z,15.92
2023-03-18T07:55:57.898Z,15.93
2023-03-18T07:58:25.976Z,16.03
2023-03-18T08:00:53.400Z,16.26
2023-03-18T08:03:20.775Z,16.43
2023-03-18T08:05:47.923Z,16.51
2023-03-18T08:08:15.891Z,16.54
2023-03-18T08:10:43.243Z,16.68
2023-03-18T08:13:10.832Z,16.95
2023-03-18T08:15:37.906Z,17.10
2023-03-18T08:18:07.056Z,17.06
2023-03-18T08:20:36.479Z,16.74
2023-03-18T08:23:04.097Z,16.60
2023-03-18T08:25:31.777Z,16.49
2023-03-18T08:27:59.794Z,16.57
2023-03-18T08:30:28.893Z,16.50
2023-03-18T08:32:57.501Z,16.37
2023-03-18T08:35:24.795Z,16.18
2023-03-18T08:37:52.426Z,16.10
2023-03-18T08:40:20.593Z,16.17
2023-03-18T08:42:48.292Z,16.03
2023-03-18T08:45:17.167Z,15.84
2023-03-18T08:47:44.328Z,15.70
2023-03-18T08:50:13.737Z,15.80
2023-03-18T08:52:41.409Z,16.08
2023-03-18T08:55:09.857Z,15.98
2023-03-18T08:57:39.012Z,15.65
2023-03-18T09:00:07.663Z,15.51
2023-03-18T09:02:35.113Z,15.63
2023-03-18T09:05:03.144Z,15.77
2023-03-18T09:07:30.810Z,15.70
2023-03-18T09:09:58.010Z,15.66
2023-03-18T09:12:25.385Z,15.60
2023-03-18T09:14:52.966Z,15.53
2023-03-18T09:17:20.122Z,15.43
2023-03-18T09:19:48.343Z,15.39
2023-03-18T09:22:16.090Z,15.35
2023-03-18T09:24:43.628Z,15.36
2023-03-18T09:27:11.366Z,15.37
2023-03-18T09:29:39.300Z,15.35
2023-03-18T09:32:06.661Z,15.18
2023-03-18T09:34:34.053Z,15.14
2023-03-18T09:37:01.377Z,15.18
2023-03-18T09:39:28.635Z,15.20
2023-03-18T09:42:10.707Z,15.19
2023-03-18T09:44:39.878Z,15.27
2023-03-18T09:47:23.823Z,15.31
2023-03-18T09:50:11.629Z,15.38
2023-03-18T09:52:44.941Z,15.23
2023-03-18T09:55:25.090Z,15.16
2023-03-18T09:57:56.088Z,14.87
2023-03-18T10:00:29.567Z,14.63
2023-03-18T10:03:03.277Z,14.44
2023-03-18T10:05:35.957Z,14.34
2023-03-18T10:08:08.261Z,14.25
2023-03-18T10:10:40.869Z,14.25
2023-03-18T10:13:17.485Z,14.31
2023-03-18T10:15:49.165Z,14.31
2023-03-18T10:18:25.399Z,14.28
2023-03-18T10:21:04.540Z,14.18
2023-03-18T10:23:44.232Z,14.02
2023-03-18T10:26:17.639Z,14.01
2023-03-18T10:29:01.751Z,13.93
2023-03-18T10:31:43.345Z,13.66
2023-03-18T10:34:16.341Z,13.62
2023-03-18T10:36:51.749Z,13.63
2023-03-18T10:39:22.585Z,13.74
2023-03-18T10:41:54.961Z,14.04
2023-03-18T10:44:27.987Z,14.34
2023-03-18T10:47:03.568Z,14.49
2023-03-18T10:49:37.198Z,14.64
2023-03-18T10:52:11.720Z,14.61
2023-03-18T10:54:42.424Z,14.52
2023-03-18T10:57:14.434Z,14.64
2023-03-18T10:59:44.735Z,14.71
2023-03-18T11:02:19.806Z,14.70
2023-03-18T11:04:56.606Z,14.61
2023-03-18T11:07:27.720Z,14.52
2023-03-18T11:09:56.552Z,14.52
2023-03-18T11:12:27.268Z,14.54
2023-03-18T11:14:54.951Z,14.32
2023-03-18T11:17:28.145Z,14.23
2023-03-18T11:20:08.369Z,14.06
2023-03-18T11:22:36.777Z,13.99
2023-03-18T11:25:15.054Z,14.09
2023-03-18T11:27:43.841Z,14.27
2023-03-18T11:30:33.969Z,14.21
2023-03-18T11:33:07.418Z,14.16
2023-03-18T11:35:42.097Z,14.09
2023-03-18T11:38:15.452Z,14.02
2023-03-18T11:40:43.872Z,13.90
2023-03-18T11:43:20.242Z,13.73
2023-03-18T11:45:52.494Z,13.63
2023-03-18T11:48:25.217Z,13.57
2023-03-18T11:51:03.557Z,13.57
2023-03-18T11:53:41.300Z,13.61
2023-03-18T11:56:19.212Z,13.55
2023-03-18T11:59:29.240Z,13.51
2023-03-18T12:02:12.361Z,13.62
2023-03-18T12:04:54.932Z,13.75
2023-03-18T12:07:38.586Z,13.75
2023-03-18T12:10:15.356Z,13.65
2023-03-18T12:12:56.827Z,13.65
2023-03-18T12:15:34.719Z,13.62
2023-03-18T12:18:15.621Z,13.54
2023-03-18T12:20:52.303Z,13.58
2023-03-18T12:23:35.459Z,13.62
2023-03-18T12:26:08.498Z,13.51
2023-03-18T12:29:03.201Z,13.37
2023-03-18T12:31:47.286Z,13.26
2023-03-18T12:34:24.376Z,13.25
2023-03-18T12:37:06.695Z,13.29
2023-03-18T12:39:59.648Z,13.32
2023-03-18T12:42:40.191Z,13.35
2023-03-18T12:45:15.489Z,13.35
2023-03-18T12:47:48.111Z,13.24
2023-03-18T12:50:21.168Z,13.17
2023-03-18T12:52:54.457Z,13.15
2023-03-18T12:55:27.344Z,13.15
2023-03-18T12:57:57.666Z,13.13
2023-03-18T13:00:31.488Z,13.11
2023-03-18T13:03:13.609Z,13.07
2023-03-18T13:05:51.050Z,13.10
2023-03-18T13:08:50.905Z,13.13
2023-03-18T13:11:38.155Z,13.05
2023-03-18T13:14:12.480Z,13.03
2023-03-18T13:16:51.082Z,13.09
2023-03-18T13:19:19.667Z,13.12
2023-03-18T13:21:52.034Z,13.12
2023-03-18T13:24:45.094Z,13.11
2023-03-18T13:27:28.401Z,13.10
2023-03-18T13:30:02.376Z,13.12
2023-03-18T13:32:49.579Z,13.14
2023-03-18T13:35:50.767Z,13.17
2023-03-18T13:38:39.703Z,13.18
2023-03-18T13:41:38.629Z,13.13
2023-03-18T13:44:19.410Z,13.08
2023-03-18T13:46:59.348Z,13.07
2023-03-18T13:49:30.249Z,13.02
2023-03-18T13:52:01.196Z,12.96
2023-03-18T13:54:43.243Z,12.84
2023-03-18T13:57:37.164Z,12.77
2023-03-18T14:00:31.052Z,12.68
2023-03-18T14:03:23.337Z,12.53
2023-03-18T14:05:52.410Z,12.38
2023-03-18T14:08:51.446Z,12.29
2023-03-18T14:11:52.857Z,12.20
2023-03-18T14:14:59.859Z,12.13
2023-03-18T14:17:37.205Z,12.07
2023-03-18T14:20:26.000Z,12.06
2023-03-18T14:22:55.298Z,12.07
2023-03-18T14:25:45.418Z,12.09
2023-03-18T14:28:26.547Z,12.12
2023-03-18T14:31:13.928Z,12.15
2023-03-18T14:34:03.335Z,12.21
2023-03-18T14:37:16.313Z,12.27
2023-03-18T14:39:46.659Z,12.27
2023-03-18T14:42:28.903Z,12.24
2023-03-18T14:45:02.487Z,12.23
2023-03-18T14:47:41.490Z,12.18
2023-03-18T14:50:18.328Z,12.10
2023-03-18T14:52:46.298Z,12.01
2023-03-18T14:55:21.027Z,11.94
2023-03-18T14:57:49.079Z,11.89
2023-03-18T15:00:20.664Z,11.87
2023-03-18T15:02:52.932Z,11.85
2023-03-18T15:05:22.932Z,11.77
2023-03-18T15:07:55.329Z,11.70
2023-03-18T15:10:28.058Z,11.64
2023-03-18T15:13:07.062Z,11.58
2023-03-18T15:15:35.169Z,11.53
2023-03-18T15:18:27.765Z,11.47
2023-03-18T15:21:01.375Z,11.42
2023-03-18T15:23:33.750Z,11.38
2023-03-18T15:26:01.250Z,11.35
2023-03-18T15:28:38.788Z,11.31
2023-03-18T15:31:06.465Z,11.28
2023-03-18T15:33:38.356Z,11.26
2023-03-18T15:36:15.197Z,11.23
2023-03-18T15:38:49.186Z,11.20
2023-03-18T15:41:22.638Z,11.18
2023-03-18T15:43:52.281Z,11.16
2023-03-18T15:46:24.769Z,11.15
2023-03-18T15:48:56.534Z,11.11
2023-03-18T15:51:30.168Z,11.09
2023-03-18T15:53:59.632Z,11.07
2023-03-18T15:56:31.408Z,11.04
2023-03-18T15:59:09.207Z,11.03
2023-03-18T16:01:37.533Z,11.01
2023-03-18T16:04:06.325Z,11.00
2023-03-18T16:06:34.620Z,10.99
2023-03-18T16:09:01.942Z,10.96
2023-03-18T16:11:39.439Z,10.93
2023-03-18T16:14:07.164Z,10.89
2023-03-18T16:16:37.349Z,10.87
2023-03-18T16:19:06.929Z,10.84
2023-03-18T16:21:42.942Z,10.82
2023-03-18T16:24:10.728Z,10.79
2023-03-18T16:26:38.216Z,10.75
2023-03-18T16:29:31.836Z,10.72
2023-03-18T16:32:12.690Z,10.68
2023-03-18T16:34:40.410Z,10.64
2023-03-18T16:37:24.041Z,10.60
2023-03-18T16:39:51.985Z,10.57
2023-03-18T16:42:22.021Z,10.56
2023-03-18T16:44:49.771Z,10.53
2023-03-18T16:47:23.428Z,10.52
2023-03-18T16:49:51.443Z,10.49
2023-03-18T16:52:19.402Z,10.47
2023-03-18T16:54:46.927Z,10.45
2023-03-18T16:57:20.026Z,10.43
2023-03-18T16:59:49.943Z,10.41
2023-03-18T17:02:32.393Z,10.39
2023-03-18T17:04:59.917Z,10.37
2023-03-18T17:07:27.619Z,10.36
2023-03-18T17:09:54.980Z,10.34
2023-03-18T17:12:23.054Z,10.33
2023-03-18T17:14:54.782Z,10.30
2023-03-18T17:17:28.283Z,10.28
2023-03-18T17:19:56.180Z,10.27
2023-03-18T17:22:25.891Z,10.26
2023-03-18T17:24:56.342Z,10.23
2023-03-18T17:27:27.128Z,10.22
2023-03-18T17:29:54.784Z,10.21
2023-03-18T17:32:22.495Z,10.19
2023-03-18T17:34:51.853Z,10.17
2023-03-18T17:37:23.701Z,10.16
2023-03-18T17:40:14.482Z,10.14
2023-03-18T17:42:45.816Z,10.11
2023-03-18T17:45:28.473Z,10.10
2023-03-18T17:48:12.640Z,10.08
2023-03-18T17:50:40.010Z,10.06
2023-03-18T17:53:08.097Z,10.04
2023-03-18T17:55:48.314Z,10.02
2023-03-18T17:58:18.978Z,9.99
2023-03-18T18:00:48.045Z,9.97
2023-03-18T18:03:24.329Z,9.95
2023-03-18T18:06:01.458Z,9.92
2023-03-18T18:08:32.948Z,9.91
2023-03-18T18:11:05.079Z,9.88
2023-03-18T18:13:55.038Z,9.87
2023-03-18T18:16:25.179Z,9.85
2023-03-18T18:18:52.593Z,9.83
2023-03-18T18:21:32.771Z,9.80
2023-03-18T18:24:00.629Z,9.78
2023-03-18T18:26:30.061Z,9.75
2023-03-18T18:28:57.574Z,9.72
2023-03-18T18:31:27.918Z,9.70
2023-03-18T18:33:55.980Z,9.67
2023-03-18T18:36:28.212Z,9.65
2023-03-18T18:38:58.311Z,9.63
2023-03-18T18:41:26.025Z,9.61
2023-03-18T18:43:56.733Z,9.59
2023-03-18T18:46:44.876Z,9.57
2023-03-18T18:49:32.492Z,9.54
2023-03-18T18:52:01.633Z,9.52
2023-03-18T18:54:39.673Z,9.49
2023-03-18T18:57:29.641Z,9.46
2023-03-18T19:00:22.025Z,9.43
2023-03-18T19:02:51.502Z,9.41
2023-03-18T19:05:26.517Z,9.37
2023-03-18T19:07:55.534Z,9.35
2023-03-18T19:10:22.896Z,9.32
2023-03-18T19:13:12.501Z,9.29
2023-03-18T19:15:39.707Z,9.26
2023-03-18T19:18:09.992Z,9.24
2023-03-18T19:20:37.652Z,9.21
2023-03-18T19:23:06.561Z,9.19
2023-03-18T19:25:34.436Z,9.16
2023-03-18T19:28:17.842Z,9.13
2023-03-18T19:30:45.887Z,9.08
2023-03-18T19:33:33.355Z,9.05
2023-03-18T19:36:00.760Z,9.02
2023-03-18T19:38:28.320Z,9.00
2023-03-18T19:40:58.347Z,8.98
2023-03-18T19:43:27.797Z,8.95
2023-03-18T19:45:55.308Z,8.92
2023-03-18T19:48:25.982Z,8.90
2023-03-18T19:50:56.069Z,8.87
2023-03-18T19:53:29.539Z,8.84
2023-03-18T19:55:57.031Z,8.82
2023-03-18T19:58:27.947Z,8.80
2023-03-18T20:00:56.367Z,8.76
2023-03-18T20:03:26.407Z,8.73
2023-03-18T20:05:54.308Z,8.71
2023-03-18T20:08:25.412Z,8.68
2023-03-18T20:10:55.055Z,8.65
2023-03-18T20:13:22.518Z,8.62
2023-03-18T20:15:50.165Z,8.61
2023-03-18T20:18:18.966Z,8.58
2023-03-18T20:20:52.400Z,8.57
2023-03-18T20:23:23.941Z,8.54
2023-03-18T20:25:53.894Z,8.53
2023-03-18T20:28:27.191Z,8.51
2023-03-18T20:30:57.177Z,8.50
2023-03-18T20:33:25.053Z,8.47
2023-03-18T20:35:54.159Z,8.44
2023-03-18T20:38:27.709Z,8.43
2023-03-18T20:40:55.438Z,8.41
2023-03-18T20:43:28.531Z,8.39
2023-03-18T20:45:56.319Z,8.36
2023-03-18T20:48:24.159Z,8.34
2023-03-18T20:50:52.466Z,8.32
2023-03-18T20:53:29.233Z,8.29
2023-03-18T20:55:57.118Z,8.27
2023-03-18T20:58:26.373Z,8.24
2023-03-18T21:00:54.623Z,8.21
2023-03-18T21:03:27.396Z,8.17
2023-03-18T21:05:56.843Z,8.13
2023-03-18T21:08:25.125Z,8.10
2023-03-18T21:10:53.698Z,8.07
2023-03-18T21:13:28.252Z,8.02
2023-03-18T21:15:55.733Z,8.02
2023-03-18T21:18:22.911Z,7.97
2023-03-18T21:21:02.524Z,7.96
2023-03-18T21:23:32.885Z,7.94
2023-03-18T21:26:00.206Z,7.91
2023-03-18T21:28:31.077Z,7.88
2023-03-18T21:30:59.324Z,7.85
2023-03-18T21:33:29.541Z,7.83
2023-03-18T21:35:57.927Z,7.79
2023-03-18T21:38:25.780Z,7.78
2023-03-18T21:40:55.683Z,7.76
2023-03-18T21:43:43.405Z,7.74
2023-03-18T21:46:24.695Z,7.71
2023-03-18T21:48:56.062Z,7.69
2023-03-18T21:51:38.114Z,7.67
2023-03-18T21:54:07.251Z,7.65
2023-03-18T21:56:34.790Z,7.62
2023-03-18T21:59:01.902Z,7.59
2023-03-18T22:01:32.548Z,7.57
2023-03-18T22:04:00.363Z,7.54
2023-03-18T22:06:27.592Z,7.52
2023-03-18T22:08:57.023Z,7.49
2023-03-18T22:11:24.889Z,7.47
2023-03-18T22:13:52.421Z,7.44
2023-03-18T22:16:20.832Z,7.41
2023-03-18T22:18:51.432Z,7.38
2023-03-18T22:21:24.607Z,7.36
2023-03-18T22:23:52.085Z,7.33
2023-03-18T22:26:20.589Z,7.31
2023-03-18T22:28:49.849Z,7.27
2023-03-18T22:31:21.568Z,7.25
2023-03-18T22:33:49.092Z,7.23
2023-03-18T22:36:21.840Z,7.21
2023-03-18T22:39:02.024Z,7.19
2023-03-18T22:41:30.621Z,7.17
2023-03-18T22:44:00.290Z,7.15
2023-03-18T22:46:30.049Z,7.13
2023-03-18T22:48:58.571Z,7.09
2023-03-18T22:51:28.998Z,7.07
2023-03-18T22:53:56.922Z,7.06
2023-03-18T22:56:27.264Z,7.03
2023-03-18T22:58:54.858Z,7.01
2023-03-18T23:01:30.951Z,6.97
2023-03-18T23:03:58.373Z,6.94
2023-03-18T23:06:27.311Z,6.92
2023-03-18T23:08:54.919Z,6.90
2023-03-18T23:11:22.280Z,6.87
2023-03-18T23:13:52.372Z,6.88
2023-03-18T23:16:21.755Z,6.86
2023-03-18T23:18:49.901Z,6.83
2023-03-18T23:21:22.759Z,6.80
2023-03-18T23:23:52.733Z,6.76
2023-03-18T23:26:20.761Z,6.74
2023-03-18T23:28:49.267Z,6.72
2023-03-18T23:31:17.873Z,6.69
2023-03-18T23:33:45.706Z,6.65
2023-03-18T23:36:13.672Z,6.63
2023-03-18T23:38:41.927Z,6.60
2023-03-18T23:41:09.814Z,6.56
2023-03-18T23:43:40.293Z,6.53
2023-03-18T23:46:10.718Z,6.50
2023-03-18T23:48:38.252Z,6.47
2023-03-18T23:51:05.806Z,6.43
2023-03-18T23:53:35.621Z,6.41
2023-03-18T23:56:02.861Z,6.38
2023-03-18T23:58:33.088Z,6.34
